createdAt,value
2017-11-13T00:00:00.146Z,5.50
2017-11-13T00:02:27.597Z,5.60
2017-11-13T00:04:55.031Z,5.60
2017-11-13T00:07:22.477Z,5.70
2017-11-13T00:09:50.679Z,5.60
2017-11-13T00:12:18.166Z,5.50
2017-11-13T00:14:45.605Z,5.50
2017-11-13T00:17:13.041Z,5.50
2017-11-13T00:19:40.465Z,5.40
2017-11-13T00:22:07.902Z,5.40
2017-11-13T00:24:35.330Z,5.40
2017-11-13T00:27:02.751Z,5.30
2017-11-13T00:29:30.951Z,5.20
2017-11-13T00:31:58.378Z,5.20
2017-11-13T00:34:26.589Z,5.20
2017-11-13T00:36:54.004Z,5.20
2017-11-13T00:39:22.204Z,5.20
2017-11-13T00:41:49.686Z,5.20
2017-11-13T00:44:17.181Z,5.20
2017-11-13T00:46:45.418Z,5.20
2017-11-13T00:49:12.838Z,5.20
2017-11-13T00:51:41.027Z,5.30
2017-11-13T00:54:08.511Z,5.30
2017-11-13T00:56:35.937Z,5.30
2017-11-13T00:59:03.362Z,5.40
2017-11-13T01:01:30.874Z,5.40
2017-11-13T01:03:58.329Z,5.40
2017-11-13T01:06:25.787Z,5.50
2017-11-13T01:08:53.250Z,5.60
2017-11-13T01:11:20.706Z,5.60
2017-11-13T01:13:48.158Z,5.70
2017-11-13T01:16:15.596Z,5.70
2017-11-13T01:18:43.082Z,5.80
2017-11-13T01:21:10.534Z,5.80
2017-11-13T01:23:38.450Z,5.80
2017-11-13T01:26:05.977Z,5.80
2017-11-13T01:28:33.403Z,5.90
2017-11-13T01:31:00.838Z,5.90
2017-11-13T01:33:29.052Z,6.00
2017-11-13T01:35:56.502Z,5.90
2017-11-13T01:38:23.989Z,6.00
2017-11-13T01:40:51.425Z,5.90
2017-11-13T01:43:18.854Z,5.90
2017-11-13T01:45:46.382Z,5.90
2017-11-13T01:48:13.805Z,5.90
2017-11-13T01:50:41.257Z,5.90
2017-11-13T01:53:08.695Z,5.90
2017-11-13T01:55:36.115Z,5.80
2017-11-13T01:58:04.336Z,5.80
2017-11-13T02:00:31.794Z,5.80
2017-11-13T02:02:59.257Z,5.80
2017-11-13T02:05:26.685Z,5.80
2017-11-13T02:07:54.115Z,5.80
2017-11-13T02:10:22.301Z,5.80
2017-11-13T02:12:50.518Z,5.80
2017-11-13T02:15:17.985Z,5.70
2017-11-13T02:17:45.405Z,5.70
2017-11-13T02:20:12.830Z,5.60
2017-11-13T02:22:40.271Z,5.60
2017-11-13T02:25:07.706Z,5.60
2017-11-13T02:27:35.150Z,5.50
2017-11-13T02:30:02.610Z,5.50
2017-11-13T02:32:30.079Z,5.40
2017-11-13T02:34:57.622Z,5.40
2017-11-13T02:37:25.068Z,5.30
2017-11-13T02:39:52.490Z,5.30
2017-11-13T02:42:20.686Z,5.20
2017-11-13T02:44:48.878Z,5.20
2017-11-13T02:47:16.304Z,5.10
2017-11-13T02:49:44.494Z,5.10
2017-11-13T02:52:11.930Z,5.10
2017-11-13T02:54:40.149Z,5.00
2017-11-13T02:57:07.606Z,5.00
2017-11-13T02:59:35.046Z,5.00
2017-11-13T03:02:02.500Z,5.00
2017-11-13T03:04:30.698Z,4.90
2017-11-13T03:06:58.154Z,4.90
2017-11-13T03:09:25.578Z,4.90
2017-11-13T03:11:53.007Z,4.90
2017-11-13T03:14:20.440Z,4.90
2017-11-13T03:16:47.878Z,4.80
2017-11-13T03:19:15.306Z,4.80
2017-11-13T03:21:42.740Z,4.80
2017-11-13T03:24:10.966Z,4.80
2017-11-13T03:26:38.392Z,4.80
2017-11-13T03:29:06.697Z,4.80
2017-11-13T03:31:36.054Z,4.70
2017-11-13T03:34:03.470Z,4.70
2017-11-13T03:36:30.910Z,4.70
2017-11-13T03:38:58.334Z,4.70
2017-11-13T03:41:26.526Z,4.80
2017-11-13T03:43:54.010Z,4.80
2017-11-13T03:46:21.436Z,4.80
2017-11-13T03:48:48.862Z,4.90
2017-11-13T03:51:16.383Z,4.90
2017-11-13T03:53:43.814Z,5.00
2017-11-13T03:56:11.248Z,5.00
2017-11-13T03:58:39.443Z,5.10
2017-11-13T04:01:06.873Z,5.10
2017-11-13T04:03:34.382Z,5.20
2017-11-13T04:06:01.827Z,5.20
2017-11-13T04:08:29.255Z,5.20
2017-11-13T04:10:57.462Z,5.20
2017-11-13T04:13:24.898Z,5.20
2017-11-13T04:15:52.368Z,5.20
2017-11-13T04:18:19.790Z,5.20
2017-11-13T04:20:48.018Z,5.10
2017-11-13T04:23:15.458Z,5.10
2017-11-13T04:25:42.878Z,5.10
2017-11-13T04:28:11.110Z,5.10
2017-11-13T04:30:38.537Z,5.10
2017-11-13T04:33:06.019Z,5.00
2017-11-13T04:35:33.454Z,5.00
2017-11-13T04:38:00.891Z,5.00
2017-11-13T04:40:29.096Z,5.00
2017-11-13T04:42:56.569Z,5.00
2017-11-13T04:45:24.022Z,5.00
2017-11-13T04:47:51.470Z,5.00
2017-11-13T04:50:18.913Z,5.00
2017-11-13T04:52:46.397Z,4.90
2017-11-13T04:55:13.825Z,4.90
2017-11-13T04:57:41.283Z,4.90
2017-11-13T05:00:08.770Z,4.90
2017-11-13T05:02:36.226Z,4.80
2017-11-13T05:05:03.657Z,4.80
2017-11-13T05:07:31.142Z,4.80
2017-11-13T05:09:58.585Z,4.70
2017-11-13T05:12:26.049Z,4.70
2017-11-13T05:14:53.510Z,4.70
2017-11-13T05:17:20.940Z,4.70
2017-11-13T05:19:48.374Z,4.60
2017-11-13T05:22:16.566Z,4.60
2017-11-13T05:24:43.993Z,4.60
2017-11-13T05:27:11.506Z,4.60
2017-11-13T05:29:38.961Z,4.60
2017-11-13T05:32:06.406Z,4.60
2017-11-13T05:34:33.883Z,4.60
2017-11-13T05:37:01.338Z,4.60
2017-11-13T05:39:28.807Z,4.50
2017-11-13T05:41:56.247Z,4.60
2017-11-13T05:44:23.678Z,4.60
2017-11-13T05:46:51.098Z,4.60
2017-11-13T05:49:18.626Z,4.60
2017-11-13T05:51:46.058Z,4.60
2017-11-13T05:54:13.546Z,4.70
2017-11-13T05:56:40.982Z,4.60
2017-11-13T05:59:08.470Z,4.70
2017-11-13T06:01:35.906Z,4.70
2017-11-13T06:04:03.355Z,4.70
2017-11-13T06:06:30.784Z,4.70
2017-11-13T06:08:58.973Z,4.70
2017-11-13T06:11:26.465Z,4.70
2017-11-13T06:13:53.926Z,4.70
2017-11-13T06:16:21.365Z,4.80
2017-11-13T06:18:48.806Z,4.80
2017-11-13T06:21:16.307Z,5.00
2017-11-13T06:23:43.721Z,5.10
2017-11-13T06:26:11.150Z,5.20
2017-11-13T06:28:39.378Z,5.30
2017-11-13T06:31:06.842Z,5.20
2017-11-13T06:33:34.308Z,5.30
2017-11-13T06:36:01.752Z,5.30
2017-11-13T06:38:29.203Z,5.20
2017-11-13T06:40:57.690Z,5.20
2017-11-13T06:43:25.138Z,5.20
2017-11-13T06:45:52.545Z,5.20
2017-11-13T06:48:19.985Z,5.10
2017-11-13T06:50:47.516Z,5.10
2017-11-13T06:53:14.937Z,5.10
2017-11-13T06:55:42.381Z,5.00
2017-11-13T06:58:10.612Z,5.00
2017-11-13T07:00:38.034Z,5.00
2017-11-13T07:03:05.478Z,5.00
2017-11-13T07:05:33.664Z,5.00
2017-11-13T07:08:01.086Z,5.00
2017-11-13T07:10:28.609Z,5.00
2017-11-13T07:12:56.066Z,5.00
2017-11-13T07:15:23.486Z,5.00
2017-11-13T07:17:50.913Z,5.00
2017-11-13T07:20:18.349Z,4.90
2017-11-13T07:22:45.768Z,4.90
2017-11-13T07:25:13.217Z,4.90
2017-11-13T07:27:40.698Z,4.90
2017-11-13T07:30:08.116Z,4.80
2017-11-13T07:32:36.360Z,4.80
2017-11-13T07:35:03.766Z,4.80
2017-11-13T07:37:31.259Z,4.80
2017-11-13T07:39:58.702Z,4.90
2017-11-13T07:42:26.122Z,4.90
2017-11-13T07:44:54.328Z,4.90
2017-11-13T07:47:21.766Z,4.90
2017-11-13T07:49:49.271Z,4.90
2017-11-13T07:52:16.710Z,4.90
2017-11-13T07:54:44.152Z,4.90
2017-11-13T07:57:11.622Z,4.90
2017-11-13T07:59:39.053Z,5.00
2017-11-13T08:02:06.538Z,5.10
2017-11-13T08:04:33.993Z,5.20
2017-11-13T08:07:01.424Z,5.20
2017-11-13T08:09:28.909Z,5.30
2017-11-13T08:11:56.338Z,5.30
2017-11-13T08:14:23.827Z,5.40
2017-11-13T08:16:51.270Z,5.40
2017-11-13T08:19:18.743Z,5.50
2017-11-13T08:21:46.168Z,5.50
2017-11-13T08:24:13.606Z,5.60
2017-11-13T08:26:41.802Z,5.70
2017-11-13T08:29:09.282Z,5.60
2017-11-13T08:31:36.745Z,5.70
2017-11-13T08:34:04.170Z,5.80
2017-11-13T08:36:31.778Z,5.80
2017-11-13T08:38:59.181Z,5.90
2017-11-13T08:41:26.606Z,6.10
2017-11-13T08:43:54.035Z,6.20
2017-11-13T08:46:21.492Z,6.20
2017-11-13T08:48:48.918Z,6.30
2017-11-13T08:51:16.346Z,6.40
2017-11-13T08:53:44.545Z,6.50
2017-11-13T08:56:12.117Z,6.50
2017-11-13T08:58:39.589Z,6.60
2017-11-13T09:01:07.025Z,6.60
2017-11-13T09:03:34.446Z,6.70
2017-11-13T09:06:02.650Z,6.80
2017-11-13T09:08:30.135Z,6.70
2017-11-13T09:10:57.587Z,6.80
2017-11-13T09:13:25.063Z,6.90
2017-11-13T09:15:52.501Z,6.90
2017-11-13T09:18:20.013Z,7.00
2017-11-13T09:20:47.398Z,7.10
2017-11-13T09:23:14.834Z,7.20
2017-11-13T09:25:43.023Z,7.30
2017-11-13T09:28:10.446Z,7.30
2017-11-13T09:30:39.395Z,7.40
2017-11-13T09:33:06.830Z,7.40
2017-11-13T09:35:34.254Z,7.50
2017-11-13T09:38:02.459Z,7.80
2017-11-13T09:40:29.969Z,7.80
2017-11-13T09:42:57.481Z,7.90
2017-11-13T09:45:25.057Z,8.00
2017-11-13T09:47:52.635Z,8.00
2017-11-13T09:50:20.143Z,8.00
2017-11-13T09:52:48.486Z,8.00
2017-11-13T09:55:16.061Z,8.00
2017-11-13T09:57:43.645Z,8.00
2017-11-13T10:00:11.934Z,8.00
2017-11-13T10:02:39.510Z,8.00
2017-11-13T10:05:07.029Z,8.00
2017-11-13T10:07:35.291Z,8.10
2017-11-13T10:10:02.913Z,8.00
2017-11-13T10:12:30.406Z,8.10
2017-11-13T10:14:58.047Z,8.10
2017-11-13T10:17:25.544Z,8.30
2017-11-13T10:19:53.783Z,8.50
2017-11-13T10:22:21.282Z,8.50
2017-11-13T10:24:49.556Z,8.60
2017-11-13T10:27:17.902Z,8.60
2017-11-13T10:29:45.483Z,8.60
2017-11-13T10:32:14.521Z,8.60
2017-11-13T10:34:42.033Z,8.60
2017-11-13T10:37:09.548Z,8.60
2017-11-13T10:39:37.369Z,8.60
2017-11-13T10:42:05.655Z,8.60
2017-11-13T10:44:34.068Z,8.60
2017-11-13T10:47:01.647Z,8.60
2017-11-13T10:49:29.188Z,8.60
2017-11-13T10:51:56.736Z,8.70
2017-11-13T10:54:24.246Z,8.80
2017-11-13T10:56:51.755Z,8.90
2017-11-13T10:59:19.278Z,8.90
2017-11-13T11:01:47.558Z,8.90
2017-11-13T11:04:15.849Z,8.80
2017-11-13T11:06:43.378Z,8.80
2017-11-13T11:09:10.876Z,8.80
2017-11-13T11:11:38.388Z,8.70
2017-11-13T11:14:06.851Z,8.70
2017-11-13T11:16:40.204Z,8.60
2017-11-13T11:19:14.251Z,8.50
2017-11-13T11:21:58.578Z,8.50
2017-11-13T11:24:26.121Z,8.50
2017-11-13T11:26:54.794Z,8.50
2017-11-13T11:29:25.685Z,8.50
2017-11-13T11:32:05.971Z,8.50
2017-11-13T11:34:51.314Z,8.60
2017-11-13T11:37:19.273Z,8.70
2017-11-13T11:39:46.773Z,8.70
2017-11-13T11:42:14.289Z,8.80
2017-11-13T11:44:51.693Z,8.90
2017-11-13T11:47:19.221Z,8.90
2017-11-13T11:49:47.213Z,9.00
2017-11-13T11:52:14.718Z,9.00
2017-11-13T11:54:45.781Z,9.00
2017-11-13T11:57:14.061Z,9.10
2017-11-13T11:59:42.382Z,9.10
2017-11-13T12:02:09.886Z,9.10
2017-11-13T12:04:38.193Z,9.30
2017-11-13T12:07:05.734Z,9.20
2017-11-13T12:09:34.021Z,9.40
2017-11-13T12:12:01.549Z,9.30
2017-11-13T12:14:29.061Z,9.40
2017-11-13T12:16:56.589Z,9.40
2017-11-13T12:19:24.868Z,9.50
2017-11-13T12:21:52.405Z,9.50
2017-11-13T12:24:20.693Z,9.70
2017-11-13T12:26:48.978Z,9.70
2017-11-13T12:29:17.283Z,9.80
2017-11-13T12:31:44.894Z,9.80
2017-11-13T12:34:13.180Z,9.80
2017-11-13T12:36:41.457Z,9.90
2017-11-13T12:39:09.749Z,9.90
2017-11-13T12:41:37.243Z,9.90
2017-11-13T12:44:04.742Z,9.90
2017-11-13T12:46:33.049Z,10.00
2017-11-13T12:49:00.603Z,10.00
2017-11-13T12:51:28.187Z,10.00
2017-11-13T12:53:55.751Z,10.00
2017-11-13T12:56:23.303Z,10.00
2017-11-13T12:58:50.858Z,10.00
2017-11-13T13:01:18.386Z,10.00
2017-11-13T13:03:46.676Z,10.00
2017-11-13T13:06:14.186Z,10.00
2017-11-13T13:08:41.715Z,10.00
2017-11-13T13:11:09.237Z,10.00
2017-11-13T13:13:37.525Z,10.00
2017-11-13T13:16:05.060Z,10.00
2017-11-13T13:18:32.680Z,10.00
2017-11-13T13:21:00.201Z,9.90
2017-11-13T13:23:28.609Z,10.00
2017-11-13T13:25:56.126Z,9.90
2017-11-13T13:28:24.951Z,9.90
2017-11-13T13:30:52.495Z,9.90
2017-11-13T13:33:20.076Z,9.90
2017-11-13T13:35:47.842Z,9.80
2017-11-13T13:38:15.524Z,9.80
2017-11-13T13:40:43.022Z,9.80
2017-11-13T13:43:11.302Z,9.70
2017-11-13T13:45:39.574Z,9.70
2017-11-13T13:48:07.992Z,9.60
2017-11-13T13:50:35.560Z,9.60
2017-11-13T13:53:03.079Z,9.50
2017-11-13T13:55:31.366Z,9.50
2017-11-13T13:57:58.879Z,9.40
2017-11-13T14:00:26.409Z,9.40
2017-11-13T14:02:53.931Z,9.40
2017-11-13T14:05:22.199Z,9.30
2017-11-13T14:07:50.484Z,9.30
2017-11-13T14:10:18.764Z,9.30
2017-11-13T14:12:47.049Z,9.30
2017-11-13T14:15:14.573Z,9.20
2017-11-13T14:17:42.085Z,9.20
2017-11-13T14:20:09.630Z,9.20
2017-11-13T14:22:37.170Z,9.20
2017-11-13T14:25:04.718Z,9.20
2017-11-13T14:27:33.011Z,9.20
2017-11-13T14:30:01.297Z,9.30
2017-11-13T14:32:28.819Z,9.20
2017-11-13T14:34:57.309Z,9.30
2017-11-13T14:37:24.778Z,9.20
2017-11-13T14:39:53.074Z,9.20
2017-11-13T14:42:20.589Z,9.20
2017-11-13T14:44:48.206Z,9.20
2017-11-13T14:47:15.725Z,9.10
2017-11-13T14:49:44.009Z,9.00
2017-11-13T14:52:12.307Z,9.00
2017-11-13T14:54:39.826Z,9.00
2017-11-13T14:57:07.438Z,9.00
2017-11-13T14:59:35.009Z,8.90
2017-11-13T15:02:02.557Z,8.90
2017-11-13T15:04:30.124Z,8.90
2017-11-13T15:06:57.585Z,8.90
2017-11-13T15:09:25.022Z,8.90
2017-11-13T15:11:52.495Z,8.90
2017-11-13T15:14:19.950Z,8.90
2017-11-13T15:16:47.382Z,8.90
2017-11-13T15:19:14.806Z,8.90
2017-11-13T15:21:42.318Z,8.80
2017-11-13T15:24:09.786Z,8.80
2017-11-13T15:26:37.291Z,8.80
2017-11-13T15:29:05.493Z,8.70
2017-11-13T15:31:32.931Z,8.70
2017-11-13T15:34:01.150Z,8.60
2017-11-13T15:36:28.593Z,8.60
2017-11-13T15:38:56.053Z,8.50
2017-11-13T15:41:23.522Z,8.50
2017-11-13T15:43:50.967Z,8.40
2017-11-13T15:46:18.386Z,8.30
2017-11-13T15:48:46.605Z,8.20
2017-11-13T15:51:14.063Z,8.20
2017-11-13T15:53:41.486Z,8.20
2017-11-13T15:56:09.670Z,8.10
2017-11-13T15:58:37.113Z,8.00
2017-11-13T16:01:05.311Z,7.90
2017-11-13T16:03:32.730Z,7.90
2017-11-13T16:06:00.952Z,7.80
2017-11-13T16:08:28.438Z,7.80
2017-11-13T16:10:55.866Z,7.80
2017-11-13T16:13:23.334Z,7.70
2017-11-13T16:15:50.758Z,7.70
2017-11-13T16:18:18.243Z,7.60
2017-11-13T16:20:45.698Z,7.60
2017-11-13T16:23:13.126Z,7.50
2017-11-13T16:25:40.553Z,7.40
2017-11-13T16:28:08.762Z,7.30
2017-11-13T16:30:36.250Z,7.30
2017-11-13T16:33:03.670Z,7.30
2017-11-13T16:35:31.110Z,7.20
2017-11-13T16:37:59.357Z,7.10
2017-11-13T16:40:26.779Z,7.10
2017-11-13T16:42:54.214Z,7.00
2017-11-13T16:45:21.638Z,7.00
2017-11-13T16:47:49.074Z,7.00
2017-11-13T16:50:16.619Z,7.00
2017-11-13T16:52:44.078Z,6.90
2017-11-13T16:55:11.526Z,6.80
2017-11-13T16:57:38.962Z,6.80
2017-11-13T17:00:06.436Z,6.80
2017-11-13T17:02:33.841Z,6.70
2017-11-13T17:05:02.076Z,6.60
2017-11-13T17:07:29.530Z,6.60
2017-11-13T17:09:56.999Z,6.60
2017-11-13T17:12:24.446Z,6.60
2017-11-13T17:14:51.870Z,6.50
2017-11-13T17:17:20.082Z,6.40
2017-11-13T17:19:47.526Z,6.40
2017-11-13T17:22:14.955Z,6.40
2017-11-13T17:24:43.174Z,6.40
2017-11-13T17:27:10.640Z,6.40
2017-11-13T17:29:38.082Z,6.40
2017-11-13T17:32:05.538Z,6.40
2017-11-13T17:34:32.970Z,6.40
2017-11-13T17:37:00.402Z,6.40
2017-11-13T17:39:28.635Z,6.40
2017-11-13T17:41:56.089Z,6.40
2017-11-13T17:44:23.515Z,6.40
2017-11-13T17:46:50.998Z,6.40
2017-11-13T17:49:18.451Z,6.40
2017-11-13T17:51:45.912Z,6.40
2017-11-13T17:54:13.334Z,6.30
2017-11-13T17:56:41.538Z,6.30
2017-11-13T17:59:08.963Z,6.30
2017-11-13T18:01:37.164Z,6.30
2017-11-13T18:04:04.591Z,6.30
2017-11-13T18:06:32.782Z,6.30
2017-11-13T18:09:00.211Z,6.30
2017-11-13T18:11:28.442Z,6.30
2017-11-13T18:13:55.869Z,6.30
2017-11-13T18:16:23.329Z,6.30
2017-11-13T18:18:50.765Z,6.30
2017-11-13T18:21:18.954Z,6.30
2017-11-13T18:23:46.378Z,6.30
2017-11-13T18:26:13.866Z,6.30
2017-11-13T18:28:41.349Z,6.30
2017-11-13T18:31:08.775Z,6.30
2017-11-13T18:33:37.096Z,6.30
2017-11-13T18:36:04.518Z,6.30
2017-11-13T18:38:31.944Z,6.30
2017-11-13T18:41:00.152Z,6.30
2017-11-13T18:43:27.570Z,6.30
2017-11-13T18:45:54.998Z,6.40
2017-11-13T18:48:22.562Z,6.30
2017-11-13T18:50:50.001Z,6.40
2017-11-13T18:53:17.470Z,6.30
2017-11-13T18:55:44.914Z,6.40
2017-11-13T18:58:12.370Z,6.30
2017-11-13T19:00:39.799Z,6.30
2017-11-13T19:03:08.008Z,6.30
2017-11-13T19:05:35.426Z,6.20
2017-11-13T19:08:03.640Z,6.20
2017-11-13T19:10:31.910Z,6.20
2017-11-13T19:13:00.003Z,6.20
2017-11-13T19:15:27.439Z,6.20
2017-11-13T19:17:54.905Z,6.10
2017-11-13T19:20:22.356Z,6.10
2017-11-13T19:22:49.778Z,6.10
2017-11-13T19:25:18.090Z,6.00
2017-11-13T19:27:45.534Z,6.00
2017-11-13T19:30:12.941Z,5.90
2017-11-13T19:32:40.383Z,5.80
2017-11-13T19:35:07.803Z,5.80
2017-11-13T19:37:35.229Z,5.70
2017-11-13T19:40:03.430Z,5.60
2017-11-13T19:42:30.851Z,5.60
2017-11-13T19:44:59.049Z,5.60
2017-11-13T19:47:26.542Z,5.50
2017-11-13T19:49:53.975Z,5.50
2017-11-13T19:52:21.459Z,5.50
2017-11-13T19:54:48.906Z,5.40
2017-11-13T19:57:16.335Z,5.40
2017-11-13T19:59:43.762Z,5.40
2017-11-13T20:02:11.194Z,5.30
2017-11-13T20:04:38.634Z,5.20
2017-11-13T20:07:06.090Z,5.20
2017-11-13T20:09:33.545Z,5.20
2017-11-13T20:12:00.978Z,5.10
2017-11-13T20:14:28.459Z,5.10
2017-11-13T20:16:55.907Z,5.00
2017-11-13T20:19:23.329Z,5.00
2017-11-13T20:21:51.521Z,4.90
2017-11-13T20:24:19.007Z,4.90
2017-11-13T20:26:46.473Z,4.90
2017-11-13T20:29:13.898Z,4.90
2017-11-13T20:31:41.342Z,4.80
2017-11-13T20:34:09.571Z,4.80
2017-11-13T20:36:37.006Z,4.80
2017-11-13T20:39:04.476Z,4.80
2017-11-13T20:41:31.902Z,4.70
2017-11-13T20:43:59.322Z,4.70
2017-11-13T20:46:27.530Z,4.60
2017-11-13T20:48:55.010Z,4.60
2017-11-13T20:51:22.441Z,4.60
2017-11-13T20:53:49.925Z,4.60
2017-11-13T20:56:17.356Z,4.60
2017-11-13T20:58:44.838Z,4.60
2017-11-13T21:01:12.323Z,4.50
2017-11-13T21:03:39.753Z,4.50
2017-11-13T21:06:07.198Z,4.50
2017-11-13T21:08:34.626Z,4.40
2017-11-13T21:11:02.837Z,4.40
2017-11-13T21:13:30.266Z,4.40
2017-11-13T21:15:58.575Z,4.30
2017-11-13T21:18:26.006Z,4.30
2017-11-13T21:20:53.429Z,4.30
2017-11-13T21:23:20.949Z,4.30
2017-11-13T21:25:48.409Z,4.30
2017-11-13T21:28:15.841Z,4.30
2017-11-13T21:30:43.314Z,4.20
2017-11-13T21:33:10.782Z,4.20
2017-11-13T21:35:38.202Z,4.10
2017-11-13T21:38:05.634Z,4.10
2017-11-13T21:40:33.146Z,4.10
2017-11-13T21:43:00.601Z,4.10
2017-11-13T21:45:28.061Z,4.20
2017-11-13T21:47:55.513Z,4.20
2017-11-13T21:50:22.942Z,4.20
2017-11-13T21:52:51.249Z,4.10
2017-11-13T21:55:18.690Z,4.10
2017-11-13T21:57:46.118Z,4.10
2017-11-13T22:00:14.340Z,4.10
2017-11-13T22:02:41.807Z,4.10
2017-11-13T22:05:09.242Z,4.10
2017-11-13T22:07:36.663Z,4.00
2017-11-13T22:10:04.880Z,4.00
2017-11-13T22:12:32.341Z,4.00
2017-11-13T22:14:59.774Z,3.90
2017-11-13T22:17:27.199Z,3.90
2017-11-13T22:19:54.621Z,3.90
2017-11-13T22:22:22.062Z,3.90
2017-11-13T22:24:49.481Z,3.80
2017-11-13T22:27:17.692Z,3.80
2017-11-13T22:29:45.126Z,3.80
2017-11-13T22:32:13.338Z,3.80
2017-11-13T22:34:40.757Z,3.80
2017-11-13T22:37:08.198Z,3.80
2017-11-13T22:39:36.394Z,3.80
2017-11-13T22:42:03.814Z,3.80
2017-11-13T22:44:31.330Z,3.80
2017-11-13T22:46:58.794Z,3.80
2017-11-13T22:49:26.243Z,3.80
2017-11-13T22:51:53.674Z,3.80
2017-11-13T22:54:21.859Z,3.90
2017-11-13T22:56:49.334Z,3.80
2017-11-13T22:59:16.793Z,3.90
2017-11-13T23:01:44.226Z,3.90
2017-11-13T23:04:11.662Z,3.90
2017-11-13T23:06:39.858Z,4.00
2017-11-13T23:09:07.290Z,3.90
2017-11-13T23:11:35.514Z,4.00
2017-11-13T23:14:02.974Z,4.00
2017-11-13T23:16:30.426Z,4.00
2017-11-13T23:18:57.857Z,4.00
2017-11-13T23:21:25.289Z,4.00
2017-11-13T23:23:53.481Z,4.00
2017-11-13T23:26:21.702Z,4.00
2017-11-13T23:28:49.140Z,4.00
2017-11-13T23:31:16.610Z,4.00
2017-11-13T23:33:44.062Z,4.00
2017-11-13T23:36:11.514Z,4.00
2017-11-13T23:38:38.942Z,4.10
2017-11-13T23:41:07.146Z,4.10
2017-11-13T23:43:34.627Z,4.10
2017-11-13T23:46:02.062Z,4.10
2017-11-13T23:48:29.530Z,4.20
2017-11-13T23:50:56.962Z,4.20
2017-11-13T23:53:24.381Z,4.20
2017-11-13T23:55:51.894Z,4.30
2017-11-13T23:58:19.363Z,4.30
